Time;durP1;ratioP1;P1;durP2;ratioP2;P2;SDS_P1;SDS_P2;PMS_P1;PMS_P2;Temp;Humidity;BMP_temperature;BMP_pressure;BME280_temperature;BME280_humidity;BME280_pressure;Samples;Min_cycle;Max_cycle;Signal;HPM_P1;HPM_P2
2023/04/07 11:47:17;;;;;;;27.77;18.38;;;;;;;;;;6002364;23;20340;31
2023/04/07 15:18:54;;;;;;;24.02;15.45;;;;;;;;;;5250941;23;20056;-82
2023/04/07 15:21:19;;;;;;;30.27;17.33;;;;;;;;;;4937230;29;20228;-82
2023/04/07 15:23:45;;;;;;;23.67;15.50;;;;;;;;;;4937413;29;20086;-82
2023/04/07 15:26:10;;;;;;;24.40;16.50;;;;;;;;;;4937818;29;20395;-81
2023/04/07 15:28:37;;;;;;;26.48;17.55;;;;;;;;;;4937724;29;20082;-81
2023/04/07 15:31:07;;;;;;;23.95;15.90;;;;;;;;;;4937851;29;20028;-81
2023/04/07 15:33:33;;;;;;;23.52;15.38;;;;;;;;;;4937772;29;20028;-82
2023/04/07 15:36:00;;;;;;;27.50;16.15;;;;;;;;;;4920621;29;20047;-83
2023/04/07 15:38:27;;;;;;;22.42;15.95;;;;;;;;;;4904822;29;20451;-82
2023/04/07 15:40:52;;;;;;;25.38;16.88;;;;;;;;;;4937663;29;20023;-81
2023/04/07 15:43:18;;;;;;;22.75;15.10;;;;;;;;;;4937732;29;20174;-82
2023/04/07 15:45:43;;;;;;;21.67;15.10;;;;;;;;;;4937283;29;20437;-83
2023/04/07 15:48:10;;;;;;;22.67;15.45;;;;;;;;;;4937187;29;20020;-82
2023/04/07 15:50:36;;;;;;;26.05;15.38;;;;;;;;;;4924056;29;20032;-85
2023/04/07 15:53:05;;;;;;;24.70;15.93;;;;;;;;;;4937237;29;20055;-82
2023/04/07 15:55:34;;;;;;;45.83;25.98;;;;;;;;;;4937339;29;20035;-83
2023/04/07 15:58:01;;;;;;;41.08;24.05;;;;;;;;;;4937149;29;20086;-83
2023/04/07 16:00:27;;;;;;;38.85;23.75;;;;;;;;;;4937149;29;20023;-82
2023/04/07 16:02:53;;;;;;;34.28;20.60;;;;;;;;;;4937124;29;20030;-80
2023/04/07 16:05:19;;;;;;;29.42;17.60;;;;;;;;;;4937238;29;20024;-83
2023/04/07 16:07:45;;;;;;;26.60;16.70;;;;;;;;;;4936982;29;20027;-83
2023/04/07 16:10:11;;;;;;;23.30;15.38;;;;;;;;;;4937199;29;20128;-81
2023/04/07 16:12:37;;;;;;;24.67;16.02;;;;;;;;;;4936846;29;20475;-82
2023/04/07 16:15:04;;;;;;;22.88;14.57;;;;;;;;;;4937103;29;20035;-82
2023/04/07 16:17:29;;;;;;;22.15;14.63;;;;;;;;;;4936793;29;20106;-82
2023/04/07 16:19:55;;;;;;;24.27;15.55;;;;;;;;;;4936899;29;20147;-82
2023/04/07 16:22:20;;;;;;;22.95;14.82;;;;;;;;;;4936735;29;20153;-82
2023/04/07 16:24:46;;;;;;;25.08;15.43;;;;;;;;;;4919926;29;20031;-82
2023/04/07 16:27:11;;;;;;;21.73;14.18;;;;;;;;;;4936737;29;20066;-82
2023/04/07 16:29:37;;;;;;;24.17;14.70;;;;;;;;;;4936908;29;20488;-82
2023/04/07 16:32:03;;;;;;;20.35;14.27;;;;;;;;;;4936761;29;20054;-84
2023/04/07 16:34:29;;;;;;;21.77;14.70;;;;;;;;;;4936270;29;20059;-83
2023/04/07 16:36:56;;;;;;;22.08;14.20;;;;;;;;;;4936747;29;20102;-83
2023/04/07 16:39:22;;;;;;;25.65;16.17;;;;;;;;;;4936731;29;20028;-81
2023/04/07 16:41:47;;;;;;;21.63;13.68;;;;;;;;;;4936542;29;20031;-87
2023/04/07 16:44:13;;;;;;;22.20;14.27;;;;;;;;;;4936707;29;20364;-85
2023/04/07 16:46:38;;;;;;;21.10;15.57;;;;;;;;;;4919264;29;20402;-83
2023/04/07 16:49:04;;;;;;;22.40;15.25;;;;;;;;;;4936319;29;20094;-84
2023/04/07 16:51:30;;;;;;;23.33;15.82;;;;;;;;;;4919707;29;20034;-86
2023/04/07 16:53:56;;;;;;;24.27;14.55;;;;;;;;;;4936386;29;20026;-85
2023/04/07 16:56:23;;;;;;;25.25;15.70;;;;;;;;;;4936361;29;20106;-86
2023/04/07 16:58:49;;;;;;;22.73;14.48;;;;;;;;;;4936033;29;20031;-83
2023/04/07 17:01:15;;;;;;;21.02;13.98;;;;;;;;;;4936168;29;20083;-85
2023/04/07 17:03:41;;;;;;;21.15;14.25;;;;;;;;;;4936435;29;20032;-85
